createdAt,value
2023-01-15T00:01:02.483Z,41.15
2023-01-15T00:03:32.821Z,41.53
2023-01-15T00:06:03.636Z,42.62
2023-01-15T00:08:31.636Z,43.82
2023-01-15T00:10:59.602Z,44.84
2023-01-15T00:13:29.477Z,46.01
2023-01-15T00:16:04.654Z,46.90
2023-01-15T00:18:34.315Z,47.52
2023-01-15T00:21:02.932Z,47.66
2023-01-15T00:23:48.885Z,47.42
2023-01-15T00:26:35.893Z,47.27
2023-01-15T00:29:04.103Z,47.17
2023-01-15T00:31:33.391Z,47.29
2023-01-15T00:34:03.044Z,47.91
2023-01-15T00:36:33.042Z,46.02
2023-01-15T00:39:01.435Z,45.51
2023-01-15T00:41:29.319Z,46.09
2023-01-15T00:43:57.811Z,46.62
2023-01-15T00:46:25.877Z,48.17
2023-01-15T00:48:53.849Z,49.32
2023-01-15T00:51:23.292Z,50.78
2023-01-15T00:53:51.205Z,51.80
2023-01-15T00:56:19.190Z,51.65
2023-01-15T00:58:47.925Z,51.13
2023-01-15T01:01:16.062Z,51.31
2023-01-15T01:03:48.939Z,49.89
2023-01-15T01:06:17.505Z,49.59
2023-01-15T01:08:47.044Z,49.72
2023-01-15T01:11:17.124Z,49.53
2023-01-15T01:13:46.710Z,50.13
2023-01-15T01:16:32.151Z,51.05
2023-01-15T01:19:01.868Z,51.41
2023-01-15T01:21:30.109Z,51.77
2023-01-15T01:24:01.251Z,50.96
2023-01-15T01:26:29.813Z,50.44
2023-01-15T01:28:59.033Z,49.79
2023-01-15T01:31:27.309Z,48.47
2023-01-15T01:33:57.830Z,49.08
2023-01-15T01:36:29.587Z,48.37
2023-01-15T01:38:57.582Z,48.11
2023-01-15T01:41:27.772Z,47.56
2023-01-15T01:44:01.150Z,48.39
2023-01-15T01:46:32.036Z,48.22
2023-01-15T01:49:04.167Z,49.09
2023-01-15T01:51:37.246Z,50.02
2023-01-15T01:54:05.761Z,51.28
2023-01-15T01:56:37.510Z,52.42
2023-01-15T01:59:08.000Z,52.95
2023-01-15T02:01:36.652Z,52.27
2023-01-15T02:04:07.799Z,52.58
2023-01-15T02:06:36.339Z,52.69
2023-01-15T02:09:04.717Z,52.00
2023-01-15T02:11:35.756Z,52.11
2023-01-15T02:14:10.225Z,52.19
2023-01-15T02:16:44.754Z,52.39
2023-01-15T02:19:30.508Z,52.75
2023-01-15T02:22:05.765Z,52.78
2023-01-15T02:24:45.136Z,52.78
2023-01-15T02:27:17.802Z,52.37
2023-01-15T02:29:54.829Z,51.63
2023-01-15T02:32:31.675Z,50.83
2023-01-15T02:35:06.110Z,50.56
2023-01-15T02:37:37.692Z,49.45
2023-01-15T02:40:08.740Z,50.29
2023-01-15T02:42:38.617Z,50.06
2023-01-15T02:45:08.891Z,49.71
2023-01-15T02:47:41.499Z,50.08
2023-01-15T02:50:15.468Z,50.28
2023-01-15T02:52:46.797Z,50.57
2023-01-15T02:55:19.059Z,50.26
2023-01-15T02:57:53.144Z,50.47
2023-01-15T03:00:24.831Z,50.90
2023-01-15T03:02:57.621Z,50.43
2023-01-15T03:05:31.682Z,50.16
2023-01-15T03:08:02.152Z,50.49
2023-01-15T03:10:40.364Z,50.18
2023-01-15T03:13:17.139Z,50.07
2023-01-15T03:16:10.163Z,49.00
2023-01-15T03:18:45.324Z,49.53
2023-01-15T03:21:18.762Z,49.75
2023-01-15T03:23:51.230Z,50.44
2023-01-15T03:26:19.199Z,50.48
2023-01-15T03:28:49.976Z,51.08
2023-01-15T03:31:22.663Z,50.34
2023-01-15T03:33:51.753Z,50.38
2023-01-15T03:36:20.329Z,51.79
2023-01-15T03:38:50.911Z,52.05
2023-01-15T03:41:26.001Z,51.92
2023-01-15T03:44:03.545Z,51.68
2023-01-15T03:46:51.834Z,49.94
2023-01-15T03:49:28.306Z,49.19
2023-01-15T03:52:03.564Z,49.13
2023-01-15T03:54:44.545Z,48.86
2023-01-15T03:57:16.441Z,49.43
2023-01-15T03:59:52.553Z,50.66
2023-01-15T04:02:22.958Z,50.77
2023-01-15T04:04:53.335Z,50.07
2023-01-15T04:07:22.163Z,50.18
2023-01-15T04:09:50.461Z,49.18
2023-01-15T04:12:18.545Z,49.55
2023-01-15T04:14:47.895Z,50.25
2023-01-15T04:17:15.837Z,50.15
2023-01-15T04:19:44.330Z,49.57
2023-01-15T04:22:12.953Z,49.82
2023-01-15T04:24:40.881Z,50.03
2023-01-15T04:27:08.908Z,49.40
2023-01-15T04:29:36.752Z,49.31
2023-01-15T04:32:06.588Z,49.05
2023-01-15T04:34:35.939Z,49.87
2023-01-15T04:37:03.962Z,49.80
2023-01-15T04:39:32.095Z,50.08
2023-01-15T04:42:25.645Z,50.49
2023-01-15T04:44:53.681Z,50.73
2023-01-15T04:47:23.083Z,50.83
2023-01-15T04:49:51.346Z,50.57
2023-01-15T04:52:20.116Z,50.48
2023-01-15T04:54:48.395Z,50.24
2023-01-15T04:57:16.356Z,49.58
2023-01-15T04:59:44.709Z,49.54
2023-01-15T05:02:15.114Z,49.15
2023-01-15T05:04:44.932Z,48.82
2023-01-15T05:07:13.065Z,47.89
2023-01-15T05:09:41.075Z,46.95
2023-01-15T05:12:10.048Z,47.74
2023-01-15T05:14:38.175Z,47.71
2023-01-15T05:17:06.779Z,47.67
2023-01-15T05:19:34.757Z,47.45
2023-01-15T05:22:04.196Z,48.10
2023-01-15T05:24:32.227Z,46.92
2023-01-15T05:27:00.594Z,47.71
2023-01-15T05:29:28.596Z,46.66
2023-01-15T05:31:56.488Z,46.04
2023-01-15T05:34:24.470Z,46.46
2023-01-15T05:36:52.410Z,46.95
2023-01-15T05:39:21.855Z,46.70
2023-01-15T05:41:53.258Z,47.33
2023-01-15T05:44:23.769Z,48.59
2023-01-15T05:46:52.771Z,49.11
2023-01-15T05:49:22.679Z,49.44
2023-01-15T05:51:51.146Z,49.88
2023-01-15T05:54:23.568Z,50.03
2023-01-15T05:56:52.216Z,49.72
2023-01-15T05:59:22.779Z,49.12
2023-01-15T06:01:51.127Z,49.57
2023-01-15T06:04:21.270Z,49.08
2023-01-15T06:06:50.470Z,48.88
2023-01-15T06:09:18.476Z,48.64
2023-01-15T06:11:48.340Z,47.42
2023-01-15T06:14:17.081Z,47.16
2023-01-15T06:16:46.663Z,46.93
2023-01-15T06:19:15.078Z,46.99
2023-01-15T06:21:43.169Z,47.64
2023-01-15T06:24:11.371Z,48.17
2023-01-15T06:26:39.800Z,47.90
2023-01-15T06:29:09.307Z,46.53
2023-01-15T06:31:37.355Z,45.92
2023-01-15T06:34:05.444Z,45.92
2023-01-15T06:36:33.411Z,45.61
2023-01-15T06:39:01.265Z,45.46
2023-01-15T06:41:46.449Z,45.34
2023-01-15T06:44:34.931Z,45.88
2023-01-15T06:47:23.596Z,46.97
2023-01-15T06:49:54.487Z,47.83
2023-01-15T06:52:22.910Z,48.21
2023-01-15T06:54:51.040Z,48.50
2023-01-15T06:57:19.997Z,48.30
2023-01-15T06:59:49.638Z,49.01
2023-01-15T07:02:18.566Z,49.77
2023-01-15T07:04:47.166Z,49.82
2023-01-15T07:07:16.478Z,50.06
2023-01-15T07:09:44.338Z,50.66
2023-01-15T07:12:12.368Z,50.98
2023-01-15T07:14:40.654Z,50.67
2023-01-15T07:17:10.201Z,50.72
2023-01-15T07:19:38.207Z,50.36
2023-01-15T07:22:06.620Z,50.50
2023-01-15T07:24:34.876Z,50.56
2023-01-15T07:27:02.890Z,50.05
2023-01-15T07:29:31.602Z,50.01
2023-01-15T07:32:00.001Z,49.58
2023-01-15T07:34:29.440Z,49.03
2023-01-15T07:36:57.715Z,47.90
2023-01-15T07:39:25.590Z,46.92
2023-01-15T07:42:10.721Z,45.92
2023-01-15T07:44:55.828Z,45.87
2023-01-15T07:47:42.964Z,46.68
2023-01-15T07:50:15.955Z,47.38
2023-01-15T07:52:43.987Z,48.43
2023-01-15T07:55:13.514Z,48.68
2023-01-15T07:57:42.377Z,47.76
2023-01-15T08:00:13.969Z,45.68
2023-01-15T08:02:42.652Z,46.27
2023-01-15T08:05:13.022Z,46.27
2023-01-15T08:07:41.987Z,46.98
2023-01-15T08:10:12.562Z,47.11
2023-01-15T08:12:58.308Z,46.84
2023-01-15T08:15:26.976Z,47.55
2023-01-15T08:17:55.266Z,47.09
2023-01-15T08:20:27.001Z,46.27
2023-01-15T08:22:54.998Z,46.36
2023-01-15T08:25:24.883Z,46.59
2023-01-15T08:27:53.558Z,46.32
2023-01-15T08:30:24.324Z,46.44
2023-01-15T08:32:52.352Z,46.06
2023-01-15T08:35:20.324Z,45.98
2023-01-15T08:37:49.636Z,45.74
2023-01-15T08:40:18.213Z,45.35
2023-01-15T08:42:46.299Z,45.70
2023-01-15T08:45:14.871Z,44.91
2023-01-15T08:47:43.041Z,45.43
2023-01-15T08:50:12.786Z,45.27
2023-01-15T08:52:40.929Z,46.22
2023-01-15T08:55:10.772Z,47.43
2023-01-15T08:57:39.003Z,48.01
2023-01-15T09:00:09.379Z,48.38
2023-01-15T09:02:37.520Z,48.99
2023-01-15T09:05:06.260Z,49.17
2023-01-15T09:07:35.464Z,50.51
2023-01-15T09:10:04.424Z,51.73
2023-01-15T09:12:33.806Z,53.19
2023-01-15T09:15:03.275Z,54.02
2023-01-15T09:17:32.773Z,54.32
2023-01-15T09:20:01.255Z,54.53
2023-01-15T09:22:31.262Z,54.37
2023-01-15T09:24:59.470Z,54.10
2023-01-15T09:27:27.483Z,54.17
2023-01-15T09:29:57.719Z,54.20
2023-01-15T09:32:25.993Z,54.76
2023-01-15T09:34:54.054Z,54.71
2023-01-15T09:37:22.171Z,55.09
2023-01-15T09:39:50.197Z,55.84
2023-01-15T09:42:38.504Z,56.70
2023-01-15T09:45:22.013Z,57.45
2023-01-15T09:48:06.042Z,57.51
2023-01-15T09:50:45.096Z,57.95
2023-01-15T09:53:26.949Z,58.25
2023-01-15T09:55:56.219Z,58.45
2023-01-15T09:58:36.200Z,58.55
2023-01-15T10:01:07.594Z,58.69
2023-01-15T10:03:43.038Z,58.74
2023-01-15T10:06:16.521Z,58.74
2023-01-15T10:08:46.784Z,58.96
2023-01-15T10:12:02.498Z,58.64
2023-01-15T10:14:39.556Z,58.45
2023-01-15T10:17:20.755Z,58.54
2023-01-15T10:19:48.900Z,58.75
2023-01-15T10:22:29.187Z,59.06
2023-01-15T10:24:58.886Z,58.56
2023-01-15T10:27:30.203Z,58.70
2023-01-15T10:30:06.573Z,58.54
2023-01-15T10:33:01.168Z,58.64
2023-01-15T10:35:42.003Z,58.47
2023-01-15T10:38:17.738Z,58.51
2023-01-15T10:41:15.558Z,58.49
2023-01-15T10:43:51.673Z,58.85
2023-01-15T10:46:21.833Z,58.39
2023-01-15T10:48:55.141Z,58.47
2023-01-15T10:51:25.297Z,57.85
2023-01-15T10:54:00.341Z,57.95
2023-01-15T10:56:34.296Z,57.70
2023-01-15T10:59:12.256Z,57.83
2023-01-15T11:01:41.730Z,57.91
2023-01-15T11:04:13.954Z,57.62
2023-01-15T11:06:42.934Z,57.50
2023-01-15T11:09:22.060Z,57.26
2023-01-15T11:12:14.569Z,56.46
2023-01-15T11:15:01.990Z,56.25
2023-01-15T11:17:51.179Z,56.85
2023-01-15T11:20:29.288Z,55.90
2023-01-15T11:22:58.708Z,56.11
2023-01-15T11:25:29.746Z,55.72
2023-01-15T11:27:59.930Z,55.51
2023-01-15T11:30:30.905Z,55.14
2023-01-15T11:33:04.352Z,55.47
2023-01-15T11:35:35.561Z,55.41
2023-01-15T11:38:05.466Z,54.70
2023-01-15T11:40:33.707Z,54.11
2023-01-15T11:43:19.175Z,53.03
2023-01-15T11:46:08.515Z,52.44
2023-01-15T11:49:02.403Z,52.61
2023-01-15T11:51:33.731Z,52.01
2023-01-15T11:54:05.742Z,52.35
2023-01-15T11:56:37.007Z,52.84
2023-01-15T11:59:11.391Z,53.31
2023-01-15T12:01:47.239Z,53.53
2023-01-15T12:04:32.332Z,53.38
2023-01-15T12:07:03.369Z,53.75
2023-01-15T12:09:45.249Z,54.28
2023-01-15T12:12:25.003Z,54.15
2023-01-15T12:15:10.916Z,53.53
2023-01-15T12:18:01.316Z,52.92
2023-01-15T12:20:37.427Z,52.68
2023-01-15T12:23:38.647Z,51.93
2023-01-15T12:26:19.929Z,51.58
2023-01-15T12:28:59.143Z,51.19
2023-01-15T12:31:33.536Z,50.52
2023-01-15T12:34:09.075Z,50.31
2023-01-15T12:36:44.563Z,49.45
2023-01-15T12:39:21.392Z,49.15
2023-01-15T12:42:26.099Z,50.10
2023-01-15T12:45:04.899Z,50.52
2023-01-15T12:47:39.987Z,49.26
2023-01-15T12:50:23.685Z,48.79
2023-01-15T12:52:59.119Z,49.13
2023-01-15T12:55:32.766Z,49.42
2023-01-15T12:58:06.270Z,50.36
2023-01-15T13:00:39.052Z,50.44
2023-01-15T13:03:18.194Z,50.06
2023-01-15T13:05:50.302Z,50.72
2023-01-15T13:08:25.390Z,51.21
2023-01-15T13:10:54.841Z,51.57
2023-01-15T13:13:24.722Z,51.33
2023-01-15T13:16:10.682Z,51.22
2023-01-15T13:18:48.152Z,51.67
2023-01-15T13:21:18.000Z,52.76
2023-01-15T13:24:15.814Z,53.68
2023-01-15T13:27:07.554Z,54.57
2023-01-15T13:29:48.015Z,54.43
2023-01-15T13:32:20.330Z,54.60
2023-01-15T13:34:55.048Z,53.97
2023-01-15T13:37:27.016Z,52.89
2023-01-15T13:40:00.044Z,52.72
2023-01-15T13:42:37.945Z,51.96
2023-01-15T13:45:27.824Z,51.06
2023-01-15T13:47:59.230Z,50.46
2023-01-15T13:50:32.087Z,49.75
2023-01-15T13:53:06.839Z,49.24
2023-01-15T13:55:36.963Z,48.05
2023-01-15T13:58:18.647Z,48.04
2023-01-15T14:00:47.359Z,49.18
2023-01-15T14:03:27.893Z,49.06
2023-01-15T14:05:56.962Z,49.66
2023-01-15T14:08:28.792Z,48.69
2023-01-15T14:10:58.288Z,48.95
2023-01-15T14:13:52.928Z,48.94
2023-01-15T14:16:35.502Z,49.05
2023-01-15T14:19:44.318Z,49.09
2023-01-15T14:22:37.114Z,49.00
2023-01-15T14:25:27.365Z,48.93
2023-01-15T14:28:06.125Z,48.54
2023-01-15T14:30:56.944Z,46.93
2023-01-15T14:33:33.496Z,45.13
2023-01-15T14:36:12.445Z,45.58
2023-01-15T14:38:49.381Z,46.31
2023-01-15T14:41:18.057Z,45.11
2023-01-15T14:43:49.662Z,44.64
2023-01-15T14:46:28.317Z,45.35
2023-01-15T14:48:56.667Z,45.04
2023-01-15T14:51:28.798Z,45.47
2023-01-15T14:53:59.887Z,45.02
2023-01-15T14:56:33.196Z,44.75
2023-01-15T14:59:05.910Z,44.49
2023-01-15T15:01:44.426Z,44.52
2023-01-15T15:04:29.708Z,44.15
2023-01-15T15:07:00.005Z,44.97
2023-01-15T15:09:36.421Z,45.08
2023-01-15T15:12:21.673Z,45.36
2023-01-15T15:14:59.874Z,45.25
2023-01-15T15:17:38.569Z,45.97
2023-01-15T15:20:23.368Z,45.80
2023-01-15T15:22:56.694Z,46.16
2023-01-15T15:25:28.318Z,44.83
2023-01-15T15:28:04.555Z,44.68
2023-01-15T15:30:35.693Z,45.09
2023-01-15T15:33:07.704Z,45.54
2023-01-15T15:35:36.092Z,45.55
2023-01-15T15:38:06.789Z,45.25
2023-01-15T15:40:37.144Z,44.75
2023-01-15T15:43:31.158Z,45.96
2023-01-15T15:46:16.815Z,45.53
2023-01-15T15:48:53.357Z,45.95
2023-01-15T15:51:33.403Z,46.12
2023-01-15T15:54:06.833Z,46.10
2023-01-15T15:56:36.147Z,46.40
2023-01-15T15:59:05.608Z,46.93
2023-01-15T16:01:38.896Z,47.35
2023-01-15T16:04:08.573Z,46.72
2023-01-15T16:06:37.292Z,46.20
2023-01-15T16:09:10.888Z,45.91
2023-01-15T16:11:40.402Z,46.17
2023-01-15T16:14:15.867Z,45.92
2023-01-15T16:16:45.067Z,46.06
2023-01-15T16:19:19.981Z,46.20
2023-01-15T16:21:48.833Z,46.14
2023-01-15T16:24:27.754Z,46.10
2023-01-15T16:27:00.037Z,46.00
2023-01-15T16:29:31.119Z,45.90
2023-01-15T16:32:00.006Z,46.06
2023-01-15T16:34:31.962Z,45.79
2023-01-15T16:37:01.045Z,45.54
2023-01-15T16:39:34.752Z,46.02
2023-01-15T16:42:03.153Z,46.28
2023-01-15T16:44:43.014Z,46.49
2023-01-15T16:47:23.067Z,46.58
2023-01-15T16:49:52.679Z,47.05
2023-01-15T16:52:48.678Z,47.20
2023-01-15T16:55:36.128Z,47.25
2023-01-15T16:58:20.920Z,47.73
2023-01-15T17:00:51.803Z,47.90
2023-01-15T17:03:21.625Z,48.49
2023-01-15T17:05:53.234Z,48.65
2023-01-15T17:08:23.510Z,49.08
2023-01-15T17:10:56.689Z,49.06
2023-01-15T17:13:33.086Z,49.30
2023-01-15T17:16:06.980Z,49.64
2023-01-15T17:18:35.726Z,50.04
2023-01-15T17:21:05.532Z,50.39
2023-01-15T17:23:37.150Z,50.27
2023-01-15T17:26:06.907Z,50.50
2023-01-15T17:28:35.381Z,50.55
2023-01-15T17:31:04.314Z,51.01
2023-01-15T17:33:32.264Z,50.73
2023-01-15T17:36:01.423Z,50.91
2023-01-15T17:38:30.853Z,51.14
2023-01-15T17:41:03.628Z,51.12
2023-01-15T17:43:31.651Z,51.24
2023-01-15T17:46:01.070Z,51.48
2023-01-15T17:48:28.970Z,51.79
2023-01-15T17:50:57.055Z,51.72
2023-01-15T17:53:25.008Z,51.55
2023-01-15T17:56:11.907Z,51.96
2023-01-15T17:58:57.072Z,51.67
2023-01-15T18:01:45.789Z,51.77
2023-01-15T18:04:36.693Z,52.16
2023-01-15T18:07:05.129Z,52.12
2023-01-15T18:09:34.661Z,52.06
2023-01-15T18:12:04.655Z,52.20
2023-01-15T18:14:32.699Z,52.13
2023-01-15T18:17:00.631Z,52.39
2023-01-15T18:19:28.596Z,52.45
2023-01-15T18:21:56.560Z,52.36
2023-01-15T18:24:24.499Z,52.44
2023-01-15T18:26:53.119Z,52.34
2023-01-15T18:29:23.217Z,52.15
2023-01-15T18:31:51.151Z,52.21
2023-01-15T18:34:19.085Z,52.33
2023-01-15T18:36:47.119Z,52.80
2023-01-15T18:39:15.388Z,52.78
2023-01-15T18:42:00.686Z,52.63
2023-01-15T18:44:47.503Z,52.75
2023-01-15T18:47:17.664Z,52.76
2023-01-15T18:49:47.042Z,52.89
2023-01-15T18:52:35.041Z,52.66
2023-01-15T18:55:03.431Z,52.86
2023-01-15T18:57:34.184Z,53.15
2023-01-15T19:00:03.671Z,53.15
2023-01-15T19:02:31.714Z,53.57
2023-01-15T19:05:01.172Z,53.19
2023-01-15T19:07:29.038Z,53.63
2023-01-15T19:09:57.139Z,53.56
2023-01-15T19:12:25.441Z,53.57
2023-01-15T19:15:10.562Z,53.70
2023-01-15T19:17:57.416Z,54.07
2023-01-15T19:20:25.496Z,54.04
2023-01-15T19:23:05.770Z,54.25
2023-01-15T19:25:38.246Z,53.87
2023-01-15T19:28:06.826Z,54.27
2023-01-15T19:30:36.149Z,54.32
2023-01-15T19:33:06.033Z,54.01
2023-01-15T19:35:35.303Z,54.30
2023-01-15T19:38:03.563Z,54.71
2023-01-15T19:40:36.433Z,54.21
2023-01-15T19:43:21.890Z,54.26
2023-01-15T19:46:12.531Z,54.54
2023-01-15T19:48:59.791Z,54.72
2023-01-15T19:51:48.929Z,54.87
2023-01-15T19:54:36.902Z,54.49
2023-01-15T19:57:04.889Z,54.62
2023-01-15T19:59:33.069Z,54.70
2023-01-15T20:02:03.645Z,54.95
2023-01-15T20:04:32.977Z,54.87
2023-01-15T20:07:00.817Z,54.97
2023-01-15T20:09:28.732Z,54.75
2023-01-15T20:12:14.028Z,54.66
2023-01-15T20:14:42.107Z,55.20
2023-01-15T20:17:11.516Z,55.11
2023-01-15T20:19:40.889Z,55.05
2023-01-15T20:22:08.923Z,54.94
2023-01-15T20:24:42.000Z,55.33
2023-01-15T20:27:10.109Z,55.49
2023-01-15T20:29:38.098Z,55.18
2023-01-15T20:32:08.035Z,55.04
2023-01-15T20:34:38.616Z,55.22
2023-01-15T20:37:08.591Z,55.05
2023-01-15T20:39:36.558Z,55.24
2023-01-15T20:42:21.971Z,55.45
2023-01-15T20:44:55.765Z,55.69
2023-01-15T20:47:42.599Z,55.25
2023-01-15T20:50:15.599Z,55.28
2023-01-15T20:52:49.130Z,55.32
2023-01-15T20:55:21.312Z,55.31
2023-01-15T20:57:49.336Z,55.25
2023-01-15T21:00:19.736Z,55.62
2023-01-15T21:02:48.249Z,55.47
2023-01-15T21:05:16.529Z,55.58
2023-01-15T21:07:44.414Z,55.42
2023-01-15T21:10:15.034Z,55.36
2023-01-15T21:12:43.281Z,55.54
2023-01-15T21:15:12.558Z,55.71
2023-01-15T21:17:41.131Z,55.49
2023-01-15T21:20:11.431Z,55.47
2023-01-15T21:22:39.904Z,55.42
2023-01-15T21:25:10.505Z,55.41
2023-01-15T21:27:40.491Z,55.46
2023-01-15T21:30:10.372Z,55.44
2023-01-15T21:32:38.496Z,55.73
2023-01-15T21:35:07.053Z,55.48
2023-01-15T21:37:35.134Z,55.51
2023-01-15T21:40:03.249Z,55.32
2023-01-15T21:42:48.289Z,55.79
2023-01-15T21:45:17.785Z,55.82
2023-01-15T21:47:45.975Z,55.74
2023-01-15T21:50:13.880Z,55.66
2023-01-15T21:52:41.849Z,55.48
2023-01-15T21:55:10.741Z,55.82
2023-01-15T21:57:38.710Z,55.62
2023-01-15T22:00:07.954Z,55.66
2023-01-15T22:02:37.402Z,55.53
2023-01-15T22:05:08.113Z,55.90
2023-01-15T22:07:36.302Z,55.88
2023-01-15T22:10:04.832Z,55.83
2023-01-15T22:12:37.400Z,55.70
2023-01-15T22:15:06.295Z,55.79
2023-01-15T22:17:34.225Z,55.65
2023-01-15T22:20:06.254Z,56.03
2023-01-15T22:22:36.459Z,55.81
2023-01-15T22:25:07.658Z,55.57
2023-01-15T22:27:40.577Z,55.78
2023-01-15T22:30:10.877Z,55.68
2023-01-15T22:32:38.800Z,55.83
2023-01-15T22:35:09.983Z,55.63
2023-01-15T22:37:37.965Z,55.81
2023-01-15T22:40:07.317Z,55.75
2023-01-15T22:42:35.361Z,55.84
2023-01-15T22:45:04.236Z,55.86
2023-01-15T22:47:32.161Z,55.78
2023-01-15T22:50:00.203Z,55.76
2023-01-15T22:52:29.809Z,55.71
2023-01-15T22:54:57.973Z,55.54
2023-01-15T22:57:26.071Z,55.75
2023-01-15T22:59:53.960Z,55.56
2023-01-15T23:02:42.641Z,55.79
2023-01-15T23:05:12.092Z,55.59
2023-01-15T23:07:41.748Z,55.75
2023-01-15T23:10:13.196Z,55.54
2023-01-15T23:12:42.279Z,55.74
2023-01-15T23:15:14.389Z,55.90
2023-01-15T23:17:42.405Z,55.96
2023-01-15T23:20:13.086Z,55.56
2023-01-15T23:22:42.552Z,56.15
2023-01-15T23:25:10.529Z,55.92
2023-01-15T23:27:38.599Z,56.04
2023-01-15T23:30:07.761Z,55.85
2023-01-15T23:32:35.674Z,56.14
2023-01-15T23:35:03.601Z,56.22
2023-01-15T23:37:31.781Z,56.10
2023-01-15T23:40:01.149Z,56.18
2023-01-15T23:42:46.485Z,55.91
2023-01-15T23:45:31.572Z,55.96
2023-01-15T23:47:59.603Z,55.97
2023-01-15T23:50:27.576Z,56.28
2023-01-15T23:52:55.453Z,55.89
2023-01-15T23:55:25.052Z,56.21
2023-01-15T23:57:53.001Z,55.79
